createdAt,value
2017-11-15T00:00:57.744Z,0
2017-11-15T00:02:07.860Z,0
2017-11-15T00:03:17.980Z,0
2017-11-15T00:04:28.160Z,0
2017-11-15T00:05:38.321Z,0
2017-11-15T00:06:48.221Z,0
2017-11-15T00:07:58.349Z,0
2017-11-15T00:09:07.668Z,0
2017-11-15T00:10:17.841Z,0
2017-11-15T00:11:27.700Z,0
2017-11-15T00:12:37.823Z,0
2017-11-15T00:13:48.221Z,0
2017-11-15T00:14:58.333Z,0
2017-11-15T00:16:08.228Z,0
2017-11-15T00:17:18.356Z,0
2017-11-15T00:18:28.475Z,0
2017-11-15T00:19:38.633Z,0
2017-11-15T00:20:48.784Z,0
2017-11-15T00:21:58.907Z,0
2017-11-15T00:23:08.776Z,0
2017-11-15T00:24:18.919Z,0
2017-11-15T00:25:29.090Z,0
2017-11-15T00:26:39.503Z,0
2017-11-15T00:27:49.387Z,0
2017-11-15T00:28:59.534Z,0
2017-11-15T00:30:09.486Z,0
2017-11-15T00:31:19.336Z,0
2017-11-15T00:32:29.495Z,0
2017-11-15T00:33:39.720Z,0
2017-11-15T00:34:50.156Z,0
2017-11-15T00:36:00.270Z,0
2017-11-15T00:37:10.411Z,0
2017-11-15T00:38:20.603Z,0
2017-11-15T00:39:30.828Z,0
2017-11-15T00:40:40.505Z,0
2017-11-15T00:41:50.732Z,0
2017-11-15T00:43:01.059Z,0
2017-11-15T00:44:11.219Z,0
2017-11-15T00:45:21.402Z,0
2017-11-15T00:46:31.511Z,0
2017-11-15T00:47:41.648Z,0
2017-11-15T00:48:51.769Z,0
2017-11-15T00:50:01.674Z,0
2017-11-15T00:51:11.776Z,0
2017-11-15T00:52:21.888Z,0
2017-11-15T00:53:31.989Z,0
2017-11-15T00:54:42.343Z,0
2017-11-15T00:55:52.487Z,0
2017-11-15T00:57:02.355Z,0
2017-11-15T00:58:12.556Z,0
2017-11-15T00:59:22.681Z,0
2017-11-15T01:00:32.887Z,0
2017-11-15T01:01:42.776Z,0
2017-11-15T01:02:52.956Z,0
2017-11-15T01:04:03.109Z,0
2017-11-15T01:05:12.974Z,0
2017-11-15T01:06:23.134Z,0
2017-11-15T01:07:32.956Z,0
2017-11-15T01:08:43.083Z,0
2017-11-15T01:09:52.934Z,0
2017-11-15T01:11:03.057Z,0
2017-11-15T01:12:13.275Z,0
2017-11-15T01:13:23.051Z,0
2017-11-15T01:14:33.177Z,0
2017-11-15T01:15:43.046Z,0
2017-11-15T01:16:52.798Z,0
2017-11-15T01:18:03.170Z,0
2017-11-15T01:19:13.010Z,0
2017-11-15T01:20:22.861Z,0
2017-11-15T01:21:32.982Z,0
2017-11-15T01:22:43.121Z,0
2017-11-15T01:23:53.580Z,0
2017-11-15T01:25:03.753Z,0
2017-11-15T01:26:13.629Z,0
2017-11-15T01:27:23.384Z,0
2017-11-15T01:28:33.510Z,0
2017-11-15T01:29:43.369Z,0
2017-11-15T01:30:53.488Z,0
2017-11-15T01:32:03.069Z,0
2017-11-15T01:33:13.066Z,0
2017-11-15T01:34:23.166Z,0
2017-11-15T01:35:33.291Z,0
2017-11-15T01:36:43.145Z,0
2017-11-15T01:37:53.273Z,0
2017-11-15T01:39:03.447Z,0
2017-11-15T01:40:13.386Z,0
2017-11-15T01:41:23.540Z,0
2017-11-15T01:42:33.660Z,0
2017-11-15T01:43:43.857Z,0
2017-11-15T01:44:54.188Z,0
2017-11-15T01:46:04.317Z,0
2017-11-15T01:47:13.941Z,0
2017-11-15T01:48:24.150Z,0
2017-11-15T01:49:34.408Z,0
2017-11-15T01:50:44.597Z,0
2017-11-15T01:51:54.737Z,0
2017-11-15T01:53:04.849Z,0
2017-11-15T01:54:15.031Z,0
2017-11-15T01:55:25.380Z,0
2017-11-15T01:56:35.496Z,0
2017-11-15T01:57:45.137Z,0
2017-11-15T01:58:54.993Z,0
2017-11-15T02:00:04.637Z,0
2017-11-15T02:01:14.816Z,0
2017-11-15T02:02:24.790Z,0
2017-11-15T02:03:34.701Z,0
2017-11-15T02:04:44.817Z,0
2017-11-15T02:05:54.949Z,0
2017-11-15T02:07:05.052Z,0
2017-11-15T02:08:15.009Z,0
2017-11-15T02:09:25.150Z,0
2017-11-15T02:10:35.290Z,0
2017-11-15T02:11:45.607Z,0
2017-11-15T02:12:55.725Z,0
2017-11-15T02:14:05.213Z,0
2017-11-15T02:15:15.069Z,0
2017-11-15T02:16:25.234Z,0
2017-11-15T02:17:35.350Z,0
2017-11-15T02:18:45.481Z,0
2017-11-15T02:19:55.580Z,0
2017-11-15T02:21:05.265Z,0
2017-11-15T02:22:15.255Z,0
2017-11-15T02:23:25.107Z,0
2017-11-15T02:24:35.225Z,0
2017-11-15T02:25:45.424Z,0
2017-11-15T02:26:55.439Z,0
2017-11-15T02:28:05.577Z,0
2017-11-15T02:29:15.702Z,0
2017-11-15T02:30:25.477Z,0
2017-11-15T02:31:35.486Z,0
2017-11-15T02:32:45.614Z,0
2017-11-15T02:33:55.398Z,0
2017-11-15T02:35:04.614Z,0
2017-11-15T02:36:14.264Z,0
2017-11-15T02:37:24.142Z,0
2017-11-15T02:38:34.024Z,0
2017-11-15T02:39:43.903Z,0
2017-11-15T02:40:53.784Z,0
2017-11-15T02:42:03.553Z,0
2017-11-15T02:43:13.405Z,0
2017-11-15T02:44:22.989Z,0
2017-11-15T02:45:33.105Z,0
2017-11-15T02:46:43.217Z,0
2017-11-15T02:47:53.351Z,0
2017-11-15T02:49:02.999Z,0
2017-11-15T02:50:13.169Z,0
2017-11-15T02:51:23.019Z,0
2017-11-15T02:52:33.218Z,0
2017-11-15T02:53:43.110Z,0
2017-11-15T02:54:53.247Z,0
2017-11-15T02:56:03.418Z,0
2017-11-15T02:57:13.666Z,0
2017-11-15T02:58:23.937Z,0
2017-11-15T02:59:33.790Z,0
2017-11-15T03:00:43.908Z,0
2017-11-15T03:01:54.072Z,0
2017-11-15T03:03:03.690Z,0
2017-11-15T03:04:13.807Z,0
2017-11-15T03:05:23.714Z,0
2017-11-15T03:06:33.584Z,0
2017-11-15T03:07:43.508Z,0
2017-11-15T03:08:53.643Z,0
2017-11-15T03:10:03.747Z,0
2017-11-15T03:11:13.923Z,0
2017-11-15T03:12:23.766Z,0
2017-11-15T03:13:33.650Z,0
2017-11-15T03:14:43.531Z,0
2017-11-15T03:15:53.726Z,0
2017-11-15T03:17:03.570Z,0
2017-11-15T03:18:13.770Z,0
2017-11-15T03:19:23.729Z,0
2017-11-15T03:20:33.857Z,0
2017-11-15T03:21:43.980Z,0
2017-11-15T03:22:53.823Z,0
2017-11-15T03:24:03.679Z,0
2017-11-15T03:25:13.543Z,0
2017-11-15T03:26:23.788Z,0
2017-11-15T03:27:33.324Z,0
2017-11-15T03:28:43.483Z,0
2017-11-15T03:29:53.598Z,0
2017-11-15T03:31:03.738Z,0
2017-11-15T03:32:13.873Z,0
2017-11-15T03:33:24.001Z,0
2017-11-15T03:34:33.587Z,0
2017-11-15T03:35:43.716Z,0
2017-11-15T03:36:53.592Z,0
2017-11-15T03:38:03.940Z,0
2017-11-15T03:39:13.689Z,0
2017-11-15T03:40:23.833Z,0
2017-11-15T03:41:33.927Z,0
2017-11-15T03:42:43.769Z,0
2017-11-15T03:43:53.627Z,0
2017-11-15T03:45:04.026Z,0
2017-11-15T03:46:14.199Z,0
2017-11-15T03:47:24.336Z,0
2017-11-15T03:48:34.454Z,0
2017-11-15T03:49:44.569Z,0
2017-11-15T03:50:54.711Z,0
2017-11-15T03:52:04.838Z,0
2017-11-15T03:53:15.041Z,0
2017-11-15T03:54:24.640Z,0
2017-11-15T03:55:34.636Z,0
2017-11-15T03:56:44.803Z,0
2017-11-15T03:57:54.982Z,0
2017-11-15T03:59:04.839Z,0
2017-11-15T04:00:14.964Z,0
2017-11-15T04:01:25.159Z,0
2017-11-15T04:02:35.259Z,0
2017-11-15T04:03:45.429Z,0
2017-11-15T04:04:55.535Z,0
2017-11-15T04:06:05.651Z,0
2017-11-15T04:07:15.798Z,0
2017-11-15T04:08:25.668Z,0
2017-11-15T04:09:35.778Z,0
2017-11-15T04:10:45.913Z,0
2017-11-15T04:11:55.800Z,0
2017-11-15T04:13:06.005Z,0
2017-11-15T04:14:16.163Z,0
2017-11-15T04:15:26.409Z,0
2017-11-15T04:16:36.560Z,0
2017-11-15T04:17:46.684Z,0
2017-11-15T04:18:56.809Z,0
2017-11-15T04:20:06.928Z,0
2017-11-15T04:21:17.054Z,0
2017-11-15T04:22:27.197Z,0
2017-11-15T04:23:37.074Z,0
2017-11-15T04:24:47.197Z,0
2017-11-15T04:25:56.804Z,0
2017-11-15T04:27:06.771Z,0
2017-11-15T04:28:16.667Z,0
2017-11-15T04:29:26.800Z,0
2017-11-15T04:30:36.591Z,0
2017-11-15T04:31:46.528Z,0
2017-11-15T04:32:56.671Z,0
2017-11-15T04:34:06.783Z,0
2017-11-15T04:35:16.927Z,0
2017-11-15T04:36:26.851Z,0
2017-11-15T04:37:36.976Z,0
2017-11-15T04:38:46.908Z,0
2017-11-15T04:39:56.793Z,0
2017-11-15T04:41:06.665Z,0
2017-11-15T04:42:16.812Z,0
2017-11-15T04:43:26.945Z,0
2017-11-15T04:44:36.798Z,0
2017-11-15T04:45:46.638Z,0
2017-11-15T04:46:56.768Z,0
2017-11-15T04:48:06.734Z,0
2017-11-15T04:49:16.493Z,0
2017-11-15T04:50:26.703Z,0
2017-11-15T04:51:36.561Z,0
2017-11-15T04:52:46.697Z,0
2017-11-15T04:53:56.439Z,0
2017-11-15T04:55:06.032Z,0
2017-11-15T04:56:16.138Z,0
2017-11-15T04:57:25.722Z,0
2017-11-15T04:58:35.869Z,0
2017-11-15T04:59:45.754Z,0
2017-11-15T05:00:55.857Z,0
2017-11-15T05:02:05.958Z,0
2017-11-15T05:03:16.145Z,0
2017-11-15T05:04:25.743Z,0
2017-11-15T05:05:35.857Z,0
2017-11-15T05:06:45.987Z,0
2017-11-15T05:07:56.141Z,0
2017-11-15T05:09:06.363Z,0
2017-11-15T05:10:16.165Z,0
2017-11-15T05:11:26.317Z,0
2017-11-15T05:12:36.514Z,0
2017-11-15T05:13:46.678Z,0
2017-11-15T05:14:56.874Z,0
2017-11-15T05:16:06.791Z,0
2017-11-15T05:17:16.964Z,0
2017-11-15T05:18:27.082Z,0
2017-11-15T05:19:36.966Z,0
2017-11-15T05:20:47.092Z,0
2017-11-15T05:21:57.142Z,0
2017-11-15T05:23:07.052Z,0
2017-11-15T05:24:16.894Z,0
2017-11-15T05:25:27.123Z,0
2017-11-15T05:26:36.978Z,0
2017-11-15T05:27:47.127Z,0
2017-11-15T05:28:57.130Z,0
2017-11-15T05:30:07.355Z,0
2017-11-15T05:31:17.149Z,0
2017-11-15T05:32:27.270Z,0
2017-11-15T05:33:37.548Z,0
2017-11-15T05:34:47.778Z,0
2017-11-15T05:35:57.943Z,0
2017-11-15T05:37:08.077Z,0
2017-11-15T05:38:17.939Z,0
2017-11-15T05:39:28.102Z,0
2017-11-15T05:40:38.076Z,0
2017-11-15T05:41:48.280Z,0
2017-11-15T05:42:57.880Z,0
2017-11-15T05:44:08.231Z,0
2017-11-15T05:45:18.462Z,0
2017-11-15T05:46:28.583Z,0
2017-11-15T05:47:38.760Z,0
2017-11-15T05:48:48.975Z,0
2017-11-15T05:49:58.847Z,0
2017-11-15T05:51:08.353Z,0
2017-11-15T05:52:18.501Z,0
2017-11-15T05:53:28.613Z,0
2017-11-15T05:54:38.461Z,0
2017-11-15T05:55:48.347Z,0
2017-11-15T05:56:58.608Z,0
2017-11-15T05:58:08.821Z,0
2017-11-15T05:59:19.023Z,0
2017-11-15T06:00:29.302Z,0
2017-11-15T06:01:39.184Z,4
2017-11-15T06:02:48.773Z,0
2017-11-15T06:03:58.587Z,4
2017-11-15T06:05:08.793Z,0
2017-11-15T06:06:18.575Z,4
2017-11-15T06:07:28.673Z,4
2017-11-15T06:08:38.942Z,4
2017-11-15T06:09:48.979Z,4
2017-11-15T06:10:58.862Z,8
2017-11-15T06:12:08.979Z,8
2017-11-15T06:13:19.075Z,8
2017-11-15T06:14:29.387Z,12
2017-11-15T06:15:39.876Z,12
2017-11-15T06:16:50.451Z,12
2017-11-15T06:18:01.223Z,16
2017-11-15T06:19:11.440Z,20
2017-11-15T06:20:22.237Z,24
2017-11-15T06:21:31.829Z,28
2017-11-15T06:22:41.877Z,32
2017-11-15T06:23:52.405Z,32
2017-11-15T06:25:02.578Z,44
2017-11-15T06:26:12.592Z,48
2017-11-15T06:27:23.065Z,56
2017-11-15T06:28:33.265Z,64
2017-11-15T06:29:43.705Z,76
2017-11-15T06:30:54.573Z,84
2017-11-15T06:32:04.942Z,96
2017-11-15T06:33:15.441Z,112
2017-11-15T06:34:25.391Z,124
2017-11-15T06:35:35.872Z,144
2017-11-15T06:36:45.986Z,168
2017-11-15T06:37:56.131Z,192
2017-11-15T06:39:06.261Z,208
2017-11-15T06:40:16.012Z,228
2017-11-15T06:41:26.163Z,248
2017-11-15T06:42:36.324Z,256
2017-11-15T06:43:46.531Z,272
2017-11-15T06:44:56.924Z,292
2017-11-15T06:46:07.051Z,312
2017-11-15T06:47:17.169Z,324
2017-11-15T06:48:27.299Z,344
2017-11-15T06:49:37.650Z,360
2017-11-15T06:50:47.506Z,368
2017-11-15T06:51:57.657Z,380
2017-11-15T06:53:07.163Z,392
2017-11-15T06:54:17.306Z,408
2017-11-15T06:55:27.678Z,432
2017-11-15T06:56:37.867Z,464
2017-11-15T06:57:47.973Z,504
2017-11-15T06:58:57.822Z,528
2017-11-15T07:00:08.039Z,536
2017-11-15T07:01:18.398Z,560
2017-11-15T07:02:27.931Z,576
2017-11-15T07:03:38.035Z,548
2017-11-15T07:04:48.155Z,464
2017-11-15T07:05:58.266Z,396
2017-11-15T07:07:08.402Z,384
2017-11-15T07:08:18.795Z,468
2017-11-15T07:09:28.642Z,620
2017-11-15T07:10:38.222Z,688
2017-11-15T07:11:48.073Z,732
2017-11-15T07:12:58.239Z,732
2017-11-15T07:14:08.087Z,732
2017-11-15T07:15:18.042Z,800
2017-11-15T07:16:28.015Z,892
2017-11-15T07:17:37.618Z,952
2017-11-15T07:18:47.753Z,988
2017-11-15T07:19:57.664Z,1024
2017-11-15T07:21:07.567Z,1020
2017-11-15T07:22:17.734Z,1008
2017-11-15T07:23:27.875Z,1056
2017-11-15T07:24:37.732Z,1176
2017-11-15T07:25:48.180Z,1320
2017-11-15T07:26:58.048Z,1492
2017-11-15T07:28:08.166Z,1676
2017-11-15T07:29:18.318Z,1848
2017-11-15T07:30:28.571Z,1988
2017-11-15T07:31:38.579Z,2080
2017-11-15T07:32:48.446Z,2128
2017-11-15T07:33:58.296Z,2132
2017-11-15T07:35:08.468Z,2108
2017-11-15T07:36:18.655Z,2060
2017-11-15T07:37:28.319Z,1912
2017-11-15T07:38:38.461Z,1772
2017-11-15T07:39:48.338Z,1724
2017-11-15T07:40:58.584Z,1800
2017-11-15T07:42:08.849Z,1952
2017-11-15T07:43:18.982Z,2148
2017-11-15T07:44:29.110Z,2308
2017-11-15T07:45:39.243Z,2400
2017-11-15T07:46:49.391Z,2416
2017-11-15T07:47:58.898Z,2440
2017-11-15T07:49:08.487Z,2448
2017-11-15T07:50:18.597Z,2440
2017-11-15T07:51:28.451Z,2344
2017-11-15T07:52:38.562Z,2280
2017-11-15T07:53:48.178Z,2328
2017-11-15T07:54:58.117Z,2488
2017-11-15T07:56:08.337Z,2656
2017-11-15T07:57:18.462Z,2768
2017-11-15T07:58:28.333Z,2708
2017-11-15T07:59:38.090Z,2636
2017-11-15T08:00:48.200Z,2784
2017-11-15T08:01:58.345Z,2964
2017-11-15T08:03:08.472Z,2936
2017-11-15T08:04:18.318Z,2664
2017-11-15T08:05:28.464Z,2312
2017-11-15T08:06:38.597Z,1976
2017-11-15T08:07:48.895Z,1720
2017-11-15T08:08:58.506Z,1508
2017-11-15T08:10:08.353Z,1396
2017-11-15T08:11:18.503Z,1420
2017-11-15T08:12:28.837Z,1508
2017-11-15T08:13:38.999Z,1468
2017-11-15T08:14:48.255Z,1348
2017-11-15T08:15:58.164Z,1424
2017-11-15T08:17:08.274Z,1644
2017-11-15T08:18:18.405Z,1688
2017-11-15T08:19:28.531Z,1452
2017-11-15T08:20:38.638Z,1180
2017-11-15T08:21:48.509Z,972
2017-11-15T08:22:58.405Z,800
2017-11-15T08:24:07.729Z,760
2017-11-15T08:25:17.851Z,848
2017-11-15T08:26:27.605Z,812
2017-11-15T08:27:37.723Z,820
2017-11-15T08:28:47.577Z,852
2017-11-15T08:29:57.717Z,796
2017-11-15T08:31:07.573Z,708
2017-11-15T08:32:17.244Z,632
2017-11-15T08:33:27.390Z,632
2017-11-15T08:34:37.243Z,640
2017-11-15T08:35:47.300Z,660
2017-11-15T08:36:57.530Z,720
2017-11-15T08:38:06.520Z,776
2017-11-15T08:39:16.382Z,884
2017-11-15T08:40:26.292Z,1048
2017-11-15T08:41:36.461Z,1124
2017-11-15T08:42:46.594Z,1124
2017-11-15T08:43:56.460Z,1012
2017-11-15T08:45:06.313Z,1100
2017-11-15T08:46:16.158Z,1364
2017-11-15T08:47:26.280Z,1592
2017-11-15T08:48:36.073Z,1652
2017-11-15T08:49:45.977Z,1652
2017-11-15T08:50:55.878Z,1540
2017-11-15T08:52:05.742Z,1556
2017-11-15T08:53:15.898Z,1572
2017-11-15T08:54:26.068Z,1656
2017-11-15T08:55:36.269Z,1776
2017-11-15T08:56:46.470Z,1780
2017-11-15T08:57:56.639Z,1648
2017-11-15T08:59:07.024Z,1540
2017-11-15T09:00:17.146Z,1496
2017-11-15T09:01:27.287Z,1504
2017-11-15T09:02:37.526Z,1648
2017-11-15T09:03:47.467Z,1884
2017-11-15T09:04:57.220Z,2140
2017-11-15T09:06:07.336Z,2192
2017-11-15T09:07:17.534Z,2272
2017-11-15T09:08:27.727Z,2460
2017-11-15T09:09:37.643Z,2984
2017-11-15T09:10:47.783Z,3472
2017-11-15T09:11:57.664Z,3644
2017-11-15T09:13:07.421Z,3704
2017-11-15T09:14:17.365Z,3872
2017-11-15T09:15:27.218Z,3956
2017-11-15T09:16:37.341Z,4044
2017-11-15T09:17:47.560Z,4364
2017-11-15T09:18:57.413Z,4856
2017-11-15T09:20:07.553Z,5468
2017-11-15T09:21:17.783Z,6228
2017-11-15T09:22:28.142Z,7016
2017-11-15T09:23:37.171Z,7328
2017-11-15T09:24:47.335Z,6428
2017-11-15T09:25:57.444Z,6320
2017-11-15T09:27:07.341Z,7368
2017-11-15T09:28:17.590Z,9784
2017-11-15T09:29:27.861Z,11252
2017-11-15T09:30:37.647Z,10660
2017-11-15T09:31:47.789Z,9480
2017-11-15T09:32:57.627Z,8612
2017-11-15T09:34:07.756Z,8488
2017-11-15T09:35:17.909Z,8788
2017-11-15T09:36:28.178Z,9152
2017-11-15T09:37:37.991Z,9344
2017-11-15T09:38:48.118Z,9336
2017-11-15T09:39:58.282Z,8156
2017-11-15T09:41:08.443Z,7796
2017-11-15T09:42:18.193Z,6600
2017-11-15T09:43:28.320Z,5828
2017-11-15T09:44:38.439Z,6016
2017-11-15T09:45:48.412Z,6340
2017-11-15T09:46:58.558Z,6324
2017-11-15T09:48:08.701Z,5740
2017-11-15T09:49:18.527Z,5184
2017-11-15T09:50:28.672Z,5584
2017-11-15T09:51:38.773Z,5628
2017-11-15T09:52:48.645Z,5876
2017-11-15T09:53:58.571Z,6208
2017-11-15T09:55:08.457Z,6396
2017-11-15T09:56:18.151Z,5844
2017-11-15T09:57:28.302Z,5944
2017-11-15T09:58:37.999Z,7288
2017-11-15T09:59:47.860Z,8924
2017-11-15T10:00:57.983Z,8768
2017-11-15T10:02:08.117Z,7684
2017-11-15T10:03:18.062Z,7928
2017-11-15T10:04:28.011Z,6556
2017-11-15T10:05:38.289Z,8756
2017-11-15T10:06:48.260Z,6540
2017-11-15T10:07:58.377Z,4644
2017-11-15T10:09:08.252Z,3892
2017-11-15T10:10:18.039Z,3024
2017-11-15T10:11:27.966Z,2888
2017-11-15T10:12:38.231Z,2984
2017-11-15T10:13:47.849Z,3396
2017-11-15T10:14:57.958Z,3904
2017-11-15T10:16:08.082Z,4132
2017-11-15T10:17:18.019Z,4536
2017-11-15T10:18:28.203Z,5272
2017-11-15T10:19:38.060Z,6192
2017-11-15T10:20:48.224Z,8144
2017-11-15T10:21:58.047Z,10104
2017-11-15T10:23:08.246Z,9508
2017-11-15T10:24:18.234Z,5572
2017-11-15T10:25:28.395Z,5100
2017-11-15T10:26:38.488Z,6832
2017-11-15T10:27:48.657Z,6508
2017-11-15T10:28:58.818Z,6372
2017-11-15T10:30:08.932Z,6936
2017-11-15T10:31:19.068Z,5936
2017-11-15T10:32:28.957Z,6880
2017-11-15T10:33:39.296Z,7268
2017-11-15T10:34:49.246Z,8000
2017-11-15T10:35:59.113Z,8216
2017-11-15T10:37:08.890Z,8312
2017-11-15T10:38:18.754Z,9324
2017-11-15T10:39:28.903Z,9840
2017-11-15T10:41:10.940Z,10716
2017-11-15T10:42:20.809Z,11264
2017-11-15T10:43:30.630Z,11956
2017-11-15T10:44:40.426Z,12332
2017-11-15T10:45:50.544Z,12176
2017-11-15T10:47:00.402Z,11620
2017-11-15T10:48:10.269Z,10756
2017-11-15T10:49:20.506Z,9940
2017-11-15T10:50:30.671Z,9624
2017-11-15T10:51:41.047Z,8964
2017-11-15T10:52:51.179Z,10204
2017-11-15T10:54:00.729Z,10980
2017-11-15T10:55:10.890Z,10300
2017-11-15T10:56:20.758Z,8820
2017-11-15T10:57:31.070Z,6052
2017-11-15T10:58:40.959Z,6356
2017-11-15T10:59:51.185Z,5952
2017-11-15T11:01:01.211Z,9344
2017-11-15T11:02:11.327Z,7336
2017-11-15T11:03:21.492Z,5132
2017-11-15T11:04:31.126Z,6576
2017-11-15T11:05:41.257Z,5672
2017-11-15T11:06:51.433Z,4648
2017-11-15T11:08:01.614Z,4836
2017-11-15T11:09:11.490Z,4620
2017-11-15T11:10:22.435Z,4480
2017-11-15T11:11:32.293Z,4388
2017-11-15T11:12:42.252Z,3940
2017-11-15T11:13:52.129Z,3248
2017-11-15T11:15:02.413Z,2904
2017-11-15T11:16:12.684Z,2640
2017-11-15T11:17:22.620Z,2632
2017-11-15T11:18:32.279Z,2772
2017-11-15T11:19:42.435Z,2736
2017-11-15T11:20:52.597Z,2888
2017-11-15T11:22:02.744Z,3176
2017-11-15T11:23:12.910Z,3852
2017-11-15T11:24:22.778Z,4428
2017-11-15T11:25:32.915Z,4456
2017-11-15T11:26:43.047Z,4664
2017-11-15T11:27:53.435Z,4560
2017-11-15T11:29:03.633Z,4028
2017-11-15T11:30:13.499Z,3392
2017-11-15T11:31:23.715Z,2828
2017-11-15T11:32:33.850Z,2776
2017-11-15T11:33:44.040Z,2728
2017-11-15T11:34:54.206Z,2680
2017-11-15T11:36:04.476Z,2788
2017-11-15T11:37:14.399Z,3052
2017-11-15T11:38:24.565Z,3100
2017-11-15T11:39:34.244Z,3208
2017-11-15T11:40:44.385Z,3108
2017-11-15T11:41:54.534Z,3128
2017-11-15T11:43:04.674Z,3264
2017-11-15T11:44:14.796Z,3660
2017-11-15T11:45:24.573Z,3652
2017-11-15T11:46:34.435Z,3940
2017-11-15T11:47:44.659Z,4084
2017-11-15T11:48:54.843Z,3968
2017-11-15T11:50:04.460Z,4208
2017-11-15T11:51:14.607Z,4324
2017-11-15T11:52:24.735Z,4056
2017-11-15T11:53:34.593Z,4724
2017-11-15T11:54:44.717Z,4692
2017-11-15T11:55:54.595Z,4300
2017-11-15T11:57:04.240Z,3800
2017-11-15T11:58:14.123Z,3880
2017-11-15T11:59:24.303Z,3812
2017-11-15T12:00:34.468Z,3512
2017-11-15T12:01:44.369Z,3444
2017-11-15T12:02:54.503Z,3432
2017-11-15T12:04:04.284Z,3180
2017-11-15T12:05:14.101Z,2900
2017-11-15T12:06:24.248Z,3056
2017-11-15T12:07:33.998Z,3272
2017-11-15T12:08:44.241Z,2964
2017-11-15T12:09:54.482Z,2704
2017-11-15T12:11:04.359Z,2584
2017-11-15T12:12:14.543Z,2512
2017-11-15T12:13:24.698Z,2328
2017-11-15T12:14:34.886Z,2356
2017-11-15T12:15:45.088Z,2592
2017-11-15T12:16:55.217Z,2760
2017-11-15T12:18:05.344Z,2792
2017-11-15T12:19:15.492Z,2540
2017-11-15T12:20:25.384Z,2512
2017-11-15T12:21:35.503Z,2748
2017-11-15T12:22:45.399Z,2912
2017-11-15T12:23:55.010Z,3124
2017-11-15T12:25:04.645Z,2980
2017-11-15T12:26:14.653Z,2660
2017-11-15T12:27:24.576Z,2476
2017-11-15T12:28:34.705Z,2508
2017-11-15T12:29:44.576Z,2352
2017-11-15T12:30:54.217Z,2272
2017-11-15T12:32:03.829Z,2312
2017-11-15T12:33:13.743Z,2248
2017-11-15T12:34:23.654Z,2628
2017-11-15T12:35:33.619Z,2876
2017-11-15T12:36:43.826Z,3012
2017-11-15T12:37:53.675Z,3100
2017-11-15T12:39:03.841Z,3104
2017-11-15T12:40:13.998Z,3208
2017-11-15T12:41:24.233Z,3184
2017-11-15T12:42:34.639Z,3304
2017-11-15T12:43:44.838Z,3480
2017-11-15T12:44:54.966Z,3488
2017-11-15T12:46:05.246Z,3492
2017-11-15T12:47:15.393Z,3260
2017-11-15T12:48:25.618Z,2904
2017-11-15T12:49:35.790Z,2628
2017-11-15T12:50:46.011Z,2536
2017-11-15T12:51:56.229Z,2584
2017-11-15T12:53:06.116Z,2484
2017-11-15T12:54:15.975Z,2160
2017-11-15T12:55:26.094Z,1936
2017-11-15T12:56:35.857Z,1824
2017-11-15T12:57:46.041Z,1740
2017-11-15T12:58:56.158Z,1680
2017-11-15T13:00:06.338Z,1800
2017-11-15T13:01:16.487Z,1952
2017-11-15T13:02:26.628Z,1868
2017-11-15T13:03:36.805Z,1820
2017-11-15T13:04:46.697Z,1592
2017-11-15T13:05:56.923Z,1460
2017-11-15T13:07:06.464Z,1380
2017-11-15T13:08:16.418Z,1352
2017-11-15T13:09:26.597Z,1416
2017-11-15T13:10:36.518Z,1380
2017-11-15T13:12:18.378Z,1572
2017-11-15T13:13:28.572Z,1660
2017-11-15T13:14:38.464Z,1608
2017-11-15T13:15:48.093Z,1452
2017-11-15T13:16:58.215Z,1332
2017-11-15T13:18:08.097Z,1316
2017-11-15T13:19:17.965Z,1272
2017-11-15T13:20:27.880Z,1216
2017-11-15T13:21:37.402Z,1180
2017-11-15T13:22:47.291Z,1212
2017-11-15T13:23:57.208Z,1328
2017-11-15T13:25:07.072Z,1340
2017-11-15T13:26:17.202Z,1264
2017-11-15T13:27:27.367Z,1120
2017-11-15T13:28:37.161Z,1136
2017-11-15T13:29:47.060Z,1224
2017-11-15T13:30:57.169Z,1216
2017-11-15T13:32:07.324Z,1208
2017-11-15T13:33:16.941Z,1172
2017-11-15T13:34:26.815Z,1088
2017-11-15T13:35:36.969Z,1088
2017-11-15T13:36:47.236Z,1172
2017-11-15T13:37:57.043Z,1216
2017-11-15T13:39:07.168Z,1196
2017-11-15T13:40:17.535Z,1152
2017-11-15T13:41:27.678Z,1060
2017-11-15T13:42:37.455Z,968
2017-11-15T13:43:47.555Z,936
2017-11-15T13:44:57.819Z,904
2017-11-15T13:46:08.044Z,868
2017-11-15T13:47:17.934Z,872
2017-11-15T13:48:27.936Z,880
2017-11-15T13:49:37.853Z,908
2017-11-15T13:50:47.987Z,928
2017-11-15T13:51:57.658Z,980
2017-11-15T13:53:07.789Z,1048
2017-11-15T13:54:18.063Z,1128
2017-11-15T13:55:28.251Z,1224
2017-11-15T13:56:38.372Z,1208
2017-11-15T13:57:48.655Z,1168
2017-11-15T13:58:58.621Z,1160
2017-11-15T14:00:08.741Z,1112
2017-11-15T14:01:18.619Z,1004
2017-11-15T14:02:28.771Z,916
2017-11-15T14:03:39.115Z,864
2017-11-15T14:04:48.980Z,828
2017-11-15T14:05:58.493Z,784
2017-11-15T14:07:08.622Z,728
2017-11-15T14:08:18.501Z,680
2017-11-15T14:09:28.395Z,644
2017-11-15T14:10:38.280Z,632
2017-11-15T14:11:48.427Z,600
2017-11-15T14:12:58.201Z,572
2017-11-15T14:14:07.917Z,548
2017-11-15T14:15:17.273Z,544
2017-11-15T14:16:26.803Z,536
2017-11-15T14:17:36.959Z,524
2017-11-15T14:18:47.318Z,520
2017-11-15T14:19:57.575Z,516
2017-11-15T14:21:07.488Z,512
2017-11-15T14:22:17.352Z,520
2017-11-15T14:23:27.496Z,520
2017-11-15T14:24:37.453Z,524
2017-11-15T14:25:47.695Z,560
2017-11-15T14:26:57.615Z,584
2017-11-15T14:28:07.760Z,620
2017-11-15T14:29:17.871Z,616
2017-11-15T14:30:28.027Z,588
2017-11-15T14:31:38.184Z,552
2017-11-15T14:32:48.384Z,536
2017-11-15T14:33:58.280Z,540
2017-11-15T14:35:08.140Z,536
2017-11-15T14:36:18.275Z,532
2017-11-15T14:37:28.491Z,532
2017-11-15T14:38:38.017Z,528
2017-11-15T14:39:48.193Z,544
2017-11-15T14:40:57.551Z,556
2017-11-15T14:42:07.461Z,564
2017-11-15T14:43:17.598Z,572
2017-11-15T14:44:27.477Z,580
2017-11-15T14:45:37.660Z,592
2017-11-15T14:46:47.541Z,608
2017-11-15T14:47:57.658Z,620
2017-11-15T14:49:07.747Z,628
2017-11-15T14:50:17.935Z,632
2017-11-15T14:51:27.566Z,604
2017-11-15T14:52:37.760Z,576
2017-11-15T14:53:47.634Z,568
2017-11-15T14:54:57.790Z,552
2017-11-15T14:56:07.646Z,532
2017-11-15T14:57:17.536Z,512
2017-11-15T14:58:27.668Z,492
2017-11-15T14:59:37.919Z,464
2017-11-15T15:00:47.864Z,428
2017-11-15T15:01:57.969Z,384
2017-11-15T15:03:07.464Z,348
2017-11-15T15:04:17.808Z,316
2017-11-15T15:05:27.712Z,284
2017-11-15T15:06:37.575Z,252
2017-11-15T15:07:47.754Z,236
2017-11-15T15:08:57.900Z,216
2017-11-15T15:10:07.820Z,200
2017-11-15T15:11:18.009Z,188
2017-11-15T15:12:28.238Z,168
2017-11-15T15:13:37.834Z,152
2017-11-15T15:14:47.756Z,136
2017-11-15T15:15:57.650Z,120
2017-11-15T15:17:07.797Z,108
2017-11-15T15:18:18.099Z,96
2017-11-15T15:19:28.718Z,92
2017-11-15T15:20:39.068Z,84
2017-11-15T15:21:49.221Z,80
2017-11-15T15:22:59.097Z,72
2017-11-15T15:24:09.224Z,60
2017-11-15T15:25:19.364Z,60
2017-11-15T15:26:29.509Z,52
2017-11-15T15:27:39.663Z,48
2017-11-15T15:28:49.979Z,44
2017-11-15T15:30:00.162Z,40
2017-11-15T15:31:10.076Z,36
2017-11-15T15:32:20.224Z,32
2017-11-15T15:33:30.369Z,24
2017-11-15T15:34:40.518Z,24
2017-11-15T15:35:50.665Z,16
2017-11-15T15:37:00.866Z,12
2017-11-15T15:38:10.800Z,8
2017-11-15T15:39:20.769Z,8
2017-11-15T15:40:30.756Z,8
2017-11-15T15:41:40.927Z,8
2017-11-15T15:42:51.018Z,8
2017-11-15T15:44:01.231Z,4
2017-11-15T15:45:11.377Z,4
2017-11-15T15:46:21.012Z,4
2017-11-15T15:47:31.178Z,4
2017-11-15T15:48:41.331Z,4
2017-11-15T15:49:51.501Z,0
2017-11-15T15:51:01.384Z,4
2017-11-15T15:52:11.522Z,4
2017-11-15T15:53:21.728Z,0
2017-11-15T15:54:31.519Z,0
2017-11-15T15:55:41.414Z,0
2017-11-15T15:56:51.569Z,0
2017-11-15T15:58:01.464Z,0
2017-11-15T15:59:11.022Z,0
2017-11-15T16:00:20.676Z,0
2017-11-15T16:01:30.814Z,0
2017-11-15T16:02:40.951Z,0
2017-11-15T16:03:51.131Z,0
2017-11-15T16:05:01.347Z,0
2017-11-15T16:06:10.869Z,0
2017-11-15T16:07:20.756Z,0
2017-11-15T16:08:30.880Z,0
2017-11-15T16:09:40.753Z,0
2017-11-15T16:10:50.894Z,0
2017-11-15T16:12:01.040Z,0
2017-11-15T16:13:11.201Z,0
2017-11-15T16:14:21.080Z,0
2017-11-15T16:15:30.875Z,0
2017-11-15T16:16:41.124Z,0
2017-11-15T16:17:51.352Z,0
2017-11-15T16:19:01.744Z,0
2017-11-15T16:20:11.929Z,0
2017-11-15T16:21:22.092Z,0
2017-11-15T16:22:31.960Z,0